EmailTwitter


Observations de surface / Québec / CYSC

Régions: Québec | Canada | États-Unis | Europe | France | UK | Ailleurs
Station
Affichage
Infos & localisation pour CYSC | Aide pour décoder les METARs

Observations prises le 2019-09-16 à 08H00 UTC à SHERBROOKE, QB (CYSC)

Etat du ciel: couvert.

Température: 10.0 Celsius

Point de rosée: 8.0 Celsius

Humidité relative: 87%

Facteur vent: 8.

Vents: Ouest à 15 km/h ou 8 noeuds.

Pression au niveau moyen de la mer: 101.81 kilopascals.

Calage altimétrique: 101.76 kilopascals ou 30.05 pouces de mercure.

Visibilité horizontale: 9.00 milles terrestres ou 14.40 kilomètres.

Hauteur du plafond: 1676 mètres ( 5500 pieds ).

Observation METAR:

CYSC 160800Z AUTO 28008KT 9SM OVC055 10/08 A3005 RMK SLP181=